createdAt,value
2022-08-30T00:01:37.777Z,17.15
2022-08-30T00:04:08.293Z,17.12
2022-08-30T00:06:36.296Z,17.05
2022-08-30T00:09:04.505Z,17.03
2022-08-30T00:11:34.896Z,17.00
2022-08-30T00:14:05.184Z,16.99
2022-08-30T00:16:36.954Z,16.97
2022-08-30T00:19:07.094Z,16.91
2022-08-30T00:21:35.276Z,16.90
2022-08-30T00:24:05.880Z,16.90
2022-08-30T00:26:33.986Z,16.88
2022-08-30T00:29:02.355Z,16.88
2022-08-30T00:31:30.386Z,16.81
2022-08-30T00:34:02.137Z,16.77
2022-08-30T00:36:32.688Z,16.74
2022-08-30T00:39:00.646Z,16.72
2022-08-30T00:41:29.024Z,16.68
2022-08-30T00:43:57.065Z,16.65
2022-08-30T00:46:27.654Z,16.60
2022-08-30T00:48:57.261Z,16.59
2022-08-30T00:51:31.189Z,16.58
2022-08-30T00:53:59.622Z,16.57
2022-08-30T00:56:29.918Z,16.60
2022-08-30T00:59:00.828Z,16.62
2022-08-30T01:01:34.282Z,16.59
2022-08-30T01:04:06.860Z,16.54
2022-08-30T01:06:40.023Z,16.52
2022-08-30T01:09:09.698Z,16.47
2022-08-30T01:11:38.985Z,16.45
2022-08-30T01:14:07.871Z,16.41
2022-08-30T01:16:36.974Z,16.43
2022-08-30T01:19:05.446Z,16.39
2022-08-30T01:21:42.391Z,16.35
2022-08-30T01:24:14.661Z,16.35
2022-08-30T01:26:42.667Z,16.31
2022-08-30T01:29:19.015Z,16.30
2022-08-30T01:31:46.957Z,16.31
2022-08-30T01:34:15.550Z,16.32
2022-08-30T01:36:45.778Z,16.30
2022-08-30T01:39:17.429Z,16.26
2022-08-30T01:41:46.258Z,16.23
2022-08-30T01:44:15.443Z,16.22
2022-08-30T01:46:47.412Z,16.17
2022-08-30T01:49:18.955Z,16.17
2022-08-30T01:52:00.595Z,16.15
2022-08-30T01:54:38.342Z,16.08
2022-08-30T01:57:10.864Z,16.09
2022-08-30T01:59:42.645Z,16.09
2022-08-30T02:02:11.260Z,16.07
2022-08-30T02:04:39.321Z,16.11
2022-08-30T02:07:14.865Z,16.02
2022-08-30T02:09:48.923Z,15.99
2022-08-30T02:12:19.632Z,15.95
2022-08-30T02:14:47.813Z,15.90
2022-08-30T02:17:19.542Z,15.88
2022-08-30T02:19:47.699Z,15.90
2022-08-30T02:22:18.311Z,15.86
2022-08-30T02:24:46.351Z,15.82
2022-08-30T02:27:16.060Z,15.79
2022-08-30T02:29:44.136Z,15.79
2022-08-30T02:32:14.829Z,15.79
2022-08-30T02:34:42.981Z,15.80
2022-08-30T02:37:11.371Z,15.78
2022-08-30T02:39:39.434Z,15.77
2022-08-30T02:42:07.535Z,15.75
2022-08-30T02:44:37.003Z,15.68
2022-08-30T02:47:05.550Z,15.66
2022-08-30T02:49:34.245Z,15.63
2022-08-30T02:52:05.157Z,15.60
2022-08-30T02:54:33.551Z,15.59
2022-08-30T02:57:05.103Z,15.55
2022-08-30T02:59:41.774Z,15.55
2022-08-30T03:02:14.273Z,15.52
2022-08-30T03:04:44.350Z,15.52
2022-08-30T03:07:17.426Z,15.47
2022-08-30T03:09:45.818Z,15.46
2022-08-30T03:12:13.825Z,15.46
2022-08-30T03:14:45.840Z,15.45
2022-08-30T03:17:15.674Z,15.40
2022-08-30T03:19:47.220Z,15.31
2022-08-30T03:22:17.394Z,15.28
2022-08-30T03:24:45.962Z,15.29
2022-08-30T03:27:14.116Z,15.24
2022-08-30T03:29:42.399Z,15.21
2022-08-30T03:32:12.045Z,15.20
2022-08-30T03:34:40.082Z,15.17
2022-08-30T03:37:08.649Z,15.14
2022-08-30T03:39:36.767Z,15.16
2022-08-30T03:42:05.439Z,15.07
2022-08-30T03:44:33.674Z,15.13
2022-08-30T03:47:01.987Z,15.07
2022-08-30T03:49:31.735Z,15.07
2022-08-30T03:52:00.297Z,15.06
2022-08-30T03:54:28.389Z,15.04
2022-08-30T03:56:57.044Z,15.03
2022-08-30T03:59:25.103Z,15.02
2022-08-30T04:01:53.929Z,14.99
2022-08-30T04:04:21.967Z,14.99
2022-08-30T04:06:54.068Z,14.99
2022-08-30T04:09:22.093Z,14.97
2022-08-30T04:11:51.011Z,14.91
2022-08-30T04:14:23.267Z,14.87
2022-08-30T04:16:51.573Z,14.82
2022-08-30T04:19:19.764Z,14.83
2022-08-30T04:21:47.961Z,14.81
2022-08-30T04:24:17.693Z,14.80
2022-08-30T04:26:45.605Z,14.78
2022-08-30T04:29:16.738Z,14.76
2022-08-30T04:31:45.158Z,14.71
2022-08-30T04:34:14.421Z,14.73
2022-08-30T04:36:48.064Z,14.72
2022-08-30T04:39:18.614Z,14.70
2022-08-30T04:41:46.906Z,14.68
2022-08-30T04:44:19.421Z,14.67
2022-08-30T04:46:50.694Z,14.62
2022-08-30T04:49:21.754Z,14.63
2022-08-30T04:51:50.235Z,14.67
2022-08-30T04:54:19.907Z,14.67
2022-08-30T04:56:47.864Z,14.64
2022-08-30T05:02:37.852Z,14.62
2022-08-30T05:05:24.545Z,14.62
2022-08-30T05:07:52.766Z,14.64
2022-08-30T05:10:20.712Z,14.66
2022-08-30T05:12:54.571Z,14.66
2022-08-30T05:15:25.011Z,14.71
2022-08-30T05:17:54.621Z,14.77
2022-08-30T05:20:25.197Z,14.88
2022-08-30T05:22:53.547Z,14.98
2022-08-30T05:25:23.683Z,15.07
2022-08-30T05:27:51.659Z,15.18
2022-08-30T05:30:20.869Z,15.31
2022-08-30T05:32:51.450Z,15.42
2022-08-30T05:35:25.728Z,15.55
2022-08-30T05:37:56.215Z,15.65
2022-08-30T05:40:24.700Z,15.76
2022-08-30T05:42:54.903Z,15.88
2022-08-30T05:45:23.169Z,15.96
2022-08-30T05:47:53.243Z,16.02
2022-08-30T05:50:23.457Z,16.04
2022-08-30T05:52:51.412Z,16.11
2022-08-30T05:55:23.634Z,16.12
2022-08-30T05:57:56.381Z,16.15
2022-08-30T06:00:24.783Z,16.13
2022-08-30T06:02:55.372Z,16.26
2022-08-30T06:05:27.439Z,16.38
2022-08-30T06:07:55.390Z,16.49
2022-08-30T06:10:26.077Z,16.61
2022-08-30T06:12:56.630Z,16.72
2022-08-30T06:15:24.715Z,16.78
2022-08-30T06:17:52.867Z,16.97
2022-08-30T06:20:20.912Z,17.20
2022-08-30T06:22:50.501Z,17.37
2022-08-30T06:25:18.627Z,17.65
2022-08-30T06:27:46.944Z,17.85
2022-08-30T06:30:17.590Z,18.06
2022-08-30T06:32:49.136Z,18.37
2022-08-30T06:35:17.511Z,18.64
2022-08-30T06:37:45.600Z,18.99
2022-08-30T06:40:21.571Z,19.89
2022-08-30T06:42:50.523Z,20.38
2022-08-30T06:45:18.649Z,20.62
2022-08-30T06:47:49.617Z,21.00
2022-08-30T06:50:20.017Z,21.50
2022-08-30T06:52:48.277Z,22.36
2022-08-30T06:55:18.440Z,22.53
2022-08-30T06:57:47.135Z,23.18
2022-08-30T07:00:18.405Z,23.33
2022-08-30T07:02:46.601Z,23.80
2022-08-30T07:05:18.605Z,24.19
2022-08-30T07:07:54.359Z,23.90
2022-08-30T07:10:23.839Z,24.33
2022-08-30T07:12:54.561Z,24.02
2022-08-30T07:15:25.195Z,24.24
2022-08-30T07:18:14.994Z,24.01
2022-08-30T07:20:43.036Z,23.83
2022-08-30T07:23:18.740Z,24.24
2022-08-30T07:25:48.112Z,24.76
2022-08-30T07:28:16.581Z,26.02
2022-08-30T07:30:44.617Z,25.33
2022-08-30T07:33:12.900Z,25.90
2022-08-30T07:35:41.295Z,26.23
2022-08-30T07:38:13.754Z,26.13
2022-08-30T07:40:42.165Z,26.42
2022-08-30T07:43:18.934Z,27.16
2022-08-30T07:45:47.272Z,27.29
2022-08-30T07:48:20.079Z,27.58
2022-08-30T07:50:48.495Z,27.71
2022-08-30T07:53:16.733Z,27.64
2022-08-30T07:55:44.823Z,27.68
2022-08-30T07:58:18.980Z,27.93
2022-08-30T08:00:47.273Z,28.39
2022-08-30T08:03:17.424Z,27.90
2022-08-30T08:05:48.259Z,28.23
2022-08-30T08:08:18.522Z,29.10
2022-08-30T08:10:47.208Z,29.30
2022-08-30T08:13:15.355Z,30.04
2022-08-30T08:15:45.082Z,29.72
2022-08-30T08:18:15.622Z,29.88
2022-08-30T08:20:43.870Z,30.25
2022-08-30T08:23:13.985Z,29.88
2022-08-30T08:25:42.504Z,30.14
2022-08-30T08:28:10.700Z,30.34
2022-08-30T08:30:38.898Z,31.14
2022-08-30T08:33:09.433Z,31.11
2022-08-30T08:35:37.668Z,31.48
2022-08-30T08:38:08.268Z,31.63
2022-08-30T08:40:49.237Z,31.48
2022-08-30T08:43:22.700Z,32.01
2022-08-30T08:46:02.100Z,32.59
2022-08-30T08:48:58.985Z,32.30
2022-08-30T08:51:50.826Z,32.16
2022-08-30T08:54:25.372Z,32.97
2022-08-30T08:56:55.690Z,33.71
2022-08-30T08:59:23.715Z,34.57
2022-08-30T09:01:58.203Z,34.66
2022-08-30T09:04:34.903Z,33.70
2022-08-30T09:07:10.213Z,33.67
2022-08-30T09:09:41.246Z,34.61
2022-08-30T09:12:13.312Z,34.79
2022-08-30T09:14:46.108Z,34.96
2022-08-30T09:17:18.809Z,35.15
2022-08-30T09:19:59.956Z,34.80
2022-08-30T09:22:34.697Z,34.85
2022-08-30T09:25:05.922Z,35.11
2022-08-30T09:27:38.584Z,34.56
2022-08-30T09:30:15.074Z,35.16
2022-08-30T09:32:53.513Z,34.69
2022-08-30T09:35:34.505Z,34.45
2022-08-30T09:38:07.580Z,34.85
2022-08-30T09:40:40.156Z,34.29
2022-08-30T09:43:12.004Z,33.18
2022-08-30T09:45:42.699Z,32.59
2022-08-30T09:48:32.992Z,33.24
2022-08-30T09:51:14.050Z,33.88
2022-08-30T09:56:54.416Z,35.52
2022-08-30T09:59:41.123Z,35.03
2022-08-30T10:03:43.649Z,36.33
2022-08-30T10:06:19.651Z,36.50
2022-08-30T10:08:59.516Z,37.08
2022-08-30T10:11:33.736Z,37.33
2022-08-30T10:14:43.710Z,36.86
2022-08-30T10:17:17.484Z,37.35
2022-08-30T10:19:58.534Z,36.99
2022-08-30T10:22:32.682Z,38.02
2022-08-30T10:25:08.231Z,38.07
2022-08-30T10:27:44.838Z,37.14
2022-08-30T10:30:15.239Z,36.99
2022-08-30T10:32:51.258Z,36.76
2022-08-30T10:35:24.152Z,37.83
2022-08-30T10:37:56.899Z,36.63
2022-08-30T10:40:49.932Z,37.60
2022-08-30T10:43:27.526Z,38.22
2022-08-30T10:46:01.745Z,37.93
2022-08-30T10:48:33.617Z,36.63
2022-08-30T10:51:11.524Z,36.45
2022-08-30T10:53:43.295Z,37.64
2022-08-30T10:56:15.295Z,37.20
2022-08-30T10:58:44.512Z,37.60
2022-08-30T11:01:37.708Z,37.47
2022-08-30T11:04:55.495Z,36.84
2022-08-30T11:07:37.071Z,37.98
2022-08-30T11:10:25.875Z,37.07
2022-08-30T11:13:09.101Z,36.73
2022-08-30T11:15:57.556Z,37.93
2022-08-30T11:18:27.493Z,37.07
2022-08-30T11:21:16.933Z,37.37
2022-08-30T11:24:02.399Z,37.08
2022-08-30T11:26:57.257Z,38.08
2022-08-30T11:29:40.678Z,36.85
2022-08-30T11:32:59.895Z,37.19
2022-08-30T11:35:47.320Z,36.98
2022-08-30T11:38:41.204Z,37.05
2022-08-30T11:41:12.746Z,36.94
2022-08-30T11:43:56.147Z,37.06
2022-08-30T11:46:40.145Z,36.74
2022-08-30T11:49:46.213Z,37.21
2022-08-30T11:52:52.857Z,37.04
2022-08-30T11:55:47.394Z,37.19
2022-08-30T11:58:37.580Z,36.90
2022-08-30T12:01:50.507Z,36.45
2022-08-30T12:04:15.341Z,37.19
2022-08-30T12:06:53.799Z,36.00
2022-08-30T12:10:09.677Z,35.99
2022-08-30T12:12:50.925Z,35.48
2022-08-30T12:15:58.528Z,34.67
2022-08-30T12:18:33.617Z,33.22
2022-08-30T12:21:09.744Z,33.13
2022-08-30T12:23:49.971Z,33.34
2022-08-30T12:26:30.484Z,32.92
2022-08-30T12:29:18.400Z,32.29
2022-08-30T12:31:53.424Z,31.88
2022-08-30T12:34:28.277Z,31.70
2022-08-30T12:37:03.085Z,31.56
2022-08-30T12:39:38.112Z,31.65
2022-08-30T12:42:18.014Z,32.13
2022-08-30T12:44:47.696Z,32.37
2022-08-30T12:47:23.751Z,32.29
2022-08-30T12:49:53.272Z,32.37
2022-08-30T12:52:29.519Z,32.69
2022-08-30T12:55:17.373Z,32.35
2022-08-30T12:58:00.594Z,32.37
2022-08-30T13:00:31.740Z,31.92
2022-08-30T13:03:16.339Z,31.97
2022-08-30T13:05:48.193Z,31.63
2022-08-30T13:08:22.442Z,31.97
2022-08-30T13:10:57.109Z,32.04
2022-08-30T13:13:35.348Z,32.43
2022-08-30T13:16:26.411Z,32.42
2022-08-30T13:19:22.954Z,32.24
2022-08-30T13:21:53.625Z,32.23
2022-08-30T13:24:25.828Z,32.23
2022-08-30T13:26:56.564Z,32.15
2022-08-30T13:29:29.287Z,31.64
2022-08-30T13:32:00.072Z,31.57
2022-08-30T13:34:33.078Z,31.48
2022-08-30T13:37:01.557Z,31.39
2022-08-30T13:39:31.875Z,31.33
2022-08-30T13:44:57.642Z,31.23
2022-08-30T13:47:34.572Z,31.28
2022-08-30T13:50:05.561Z,30.81
2022-08-30T13:52:34.149Z,30.86
2022-08-30T13:55:03.214Z,30.79
2022-08-30T14:00:22.202Z,30.47
2022-08-30T14:02:54.683Z,30.76
2022-08-30T14:11:06.299Z,31.06
2022-08-30T14:13:34.476Z,31.00
2022-08-30T14:18:59.186Z,31.11
2022-08-30T14:21:29.342Z,31.06
2022-08-30T14:24:01.058Z,30.70
2022-08-30T14:26:33.823Z,30.41
2022-08-30T14:29:06.142Z,30.23
2022-08-30T14:31:38.189Z,30.35
2022-08-30T14:34:11.051Z,30.36
2022-08-30T14:36:44.512Z,30.44
2022-08-30T14:39:15.793Z,30.15
2022-08-30T14:41:47.067Z,30.13
2022-08-30T14:44:19.036Z,29.95
2022-08-30T14:46:51.210Z,29.78
2022-08-30T14:49:20.153Z,30.07
2022-08-30T14:51:49.940Z,29.99
2022-08-30T14:54:25.556Z,30.08
2022-08-30T14:56:56.681Z,30.09
2022-08-30T14:59:26.618Z,30.15
2022-08-30T15:04:38.346Z,30.27
2022-08-30T15:07:09.407Z,30.44
2022-08-30T15:09:39.979Z,30.45
2022-08-30T15:12:08.689Z,30.10
2022-08-30T15:14:37.014Z,30.00
2022-08-30T15:19:54.850Z,30.03
2022-08-30T15:22:25.054Z,29.98
2022-08-30T15:24:55.562Z,29.84
2022-08-30T15:27:23.884Z,29.78
2022-08-30T15:29:52.452Z,29.74
2022-08-30T15:32:20.588Z,29.61
2022-08-30T15:34:55.899Z,29.41
2022-08-30T15:37:27.946Z,29.51
2022-08-30T15:39:58.784Z,29.61
2022-08-30T15:42:27.569Z,29.47
2022-08-30T15:44:57.843Z,29.44
2022-08-30T15:47:34.056Z,29.39
2022-08-30T15:50:05.510Z,29.41
2022-08-30T15:52:35.135Z,29.45
2022-08-30T15:55:03.537Z,29.45
2022-08-30T15:57:31.660Z,29.50
2022-08-30T16:00:09.179Z,29.49
2022-08-30T16:02:37.686Z,29.36
2022-08-30T16:05:08.102Z,29.44
2022-08-30T16:07:40.795Z,29.51
2022-08-30T16:10:10.586Z,29.59
2022-08-30T16:12:38.654Z,29.56
2022-08-30T16:15:07.423Z,29.39
2022-08-30T16:17:35.747Z,29.33
2022-08-30T16:20:08.787Z,29.40
2022-08-30T16:22:38.294Z,29.35
2022-08-30T16:25:07.200Z,29.23
2022-08-30T16:27:42.116Z,29.00
2022-08-30T16:30:14.106Z,28.77
2022-08-30T16:32:42.358Z,28.71
2022-08-30T16:35:10.633Z,28.77
2022-08-30T16:37:41.162Z,28.71
2022-08-30T16:40:12.079Z,28.58
2022-08-30T16:42:42.800Z,28.44
2022-08-30T16:45:13.858Z,28.33
2022-08-30T16:47:41.945Z,28.21
2022-08-30T16:50:12.355Z,28.10
2022-08-30T16:52:44.395Z,28.02
2022-08-30T16:55:12.666Z,27.90
2022-08-30T16:57:41.083Z,27.80
2022-08-30T17:00:13.383Z,27.69
2022-08-30T17:02:48.080Z,27.63
2022-08-30T17:05:27.188Z,27.57
2022-08-30T17:07:56.834Z,27.56
2022-08-30T17:10:26.310Z,27.58
2022-08-30T17:12:59.804Z,27.57
2022-08-30T17:15:27.991Z,27.54
2022-08-30T17:17:59.450Z,27.49
2022-08-30T17:20:31.147Z,27.49
2022-08-30T17:23:02.691Z,27.49
2022-08-30T17:25:34.011Z,27.50
2022-08-30T17:28:02.300Z,27.49
2022-08-30T17:30:31.285Z,27.48
2022-08-30T17:33:04.117Z,27.47
2022-08-30T17:35:34.273Z,27.43
2022-08-30T17:38:06.290Z,27.36
2022-08-30T17:40:34.539Z,27.31
2022-08-30T17:43:03.225Z,27.29
2022-08-30T17:45:33.539Z,27.18
2022-08-30T17:48:04.514Z,27.08
2022-08-30T17:50:33.342Z,26.98
2022-08-30T17:53:04.369Z,26.87
2022-08-30T17:55:33.727Z,26.78
2022-08-30T17:58:03.036Z,26.71
2022-08-30T18:00:33.644Z,26.64
2022-08-30T18:03:02.885Z,26.53
2022-08-30T18:05:35.002Z,26.43
2022-08-30T18:08:09.830Z,26.30
2022-08-30T18:10:41.564Z,26.15
2022-08-30T18:13:12.262Z,26.00
2022-08-30T18:15:44.110Z,25.87
2022-08-30T18:18:12.809Z,25.83
2022-08-30T18:20:43.170Z,25.81
2022-08-30T18:23:12.626Z,25.70
2022-08-30T18:25:42.247Z,25.60
2022-08-30T18:28:12.496Z,25.57
2022-08-30T18:30:41.487Z,25.64
2022-08-30T18:33:10.723Z,25.53
2022-08-30T18:35:42.885Z,25.43
2022-08-30T18:38:16.029Z,25.49
2022-08-30T18:40:46.628Z,25.41
2022-08-30T18:43:17.089Z,25.36
2022-08-30T18:45:53.142Z,25.43
2022-08-30T18:48:21.509Z,25.33
2022-08-30T18:50:51.787Z,25.30
2022-08-30T18:53:29.249Z,25.21
2022-08-30T18:55:59.059Z,25.09
2022-08-30T18:58:29.748Z,25.09
2022-08-30T19:00:57.765Z,25.00
2022-08-30T19:03:26.253Z,24.99
2022-08-30T19:06:03.427Z,24.90
2022-08-30T19:08:33.456Z,24.80
2022-08-30T19:11:07.464Z,24.69
2022-08-30T19:13:36.335Z,24.61
2022-08-30T19:16:05.609Z,24.57
2022-08-30T19:18:33.828Z,24.46
2022-08-30T19:21:04.829Z,24.33
2022-08-30T19:23:36.407Z,24.27
2022-08-30T19:26:08.788Z,24.39
2022-08-30T19:28:41.978Z,24.37
2022-08-30T19:31:10.326Z,24.29
2022-08-30T19:33:38.733Z,24.18
2022-08-30T19:36:07.349Z,24.20
2022-08-30T19:38:36.327Z,24.08
2022-08-30T19:41:05.066Z,24.00
2022-08-30T19:43:34.450Z,23.96
2022-08-30T19:46:03.095Z,23.96
2022-08-30T19:48:32.659Z,23.89
2022-08-30T19:51:06.853Z,23.82
2022-08-30T19:53:35.629Z,23.79
2022-08-30T19:56:06.979Z,23.72
2022-08-30T19:58:36.756Z,23.68
2022-08-30T20:01:10.708Z,23.65
2022-08-30T20:05:38.115Z,23.58
2022-08-30T20:08:06.297Z,23.49
2022-08-30T20:10:36.009Z,23.46
2022-08-30T20:13:05.937Z,23.45
2022-08-30T20:15:39.743Z,23.43
2022-08-30T20:18:14.754Z,23.51
2022-08-30T20:20:49.306Z,23.47
2022-08-30T20:23:21.628Z,23.42
2022-08-30T20:25:56.046Z,23.34
2022-08-30T20:28:25.480Z,23.28
2022-08-30T20:30:55.978Z,23.25
2022-08-30T20:33:26.118Z,23.14
2022-08-30T20:35:55.770Z,23.05
2022-08-30T20:38:24.086Z,23.00
2022-08-30T20:40:54.712Z,22.90
2022-08-30T20:43:25.504Z,22.89
2022-08-30T20:45:55.349Z,22.90
2022-08-30T20:48:26.024Z,22.88
2022-08-30T20:50:55.833Z,22.89
2022-08-30T20:53:26.307Z,22.84
2022-08-30T20:55:54.534Z,22.78
2022-08-30T20:58:27.503Z,22.73
2022-08-30T21:00:58.468Z,22.66
2022-08-30T21:03:27.862Z,22.62
2022-08-30T21:05:57.681Z,22.62
2022-08-30T21:08:26.504Z,22.70
2022-08-30T21:10:55.093Z,22.63
2022-08-30T21:13:23.471Z,22.54
2022-08-30T21:16:00.279Z,22.50
2022-08-30T21:18:29.958Z,22.44
2022-08-30T21:21:08.492Z,22.44
2022-08-30T21:23:39.908Z,22.38
2022-08-30T21:26:08.845Z,22.39
2022-08-30T21:28:40.082Z,22.40
2022-08-30T21:31:09.383Z,22.37
2022-08-30T21:33:37.971Z,22.36
2022-08-30T21:36:26.252Z,22.33
2022-08-30T21:38:55.190Z,22.28
2022-08-30T21:41:29.518Z,22.25
2022-08-30T21:44:01.908Z,22.26
2022-08-30T21:46:34.666Z,22.31
2022-08-30T21:49:07.335Z,22.26
2022-08-30T21:51:39.550Z,22.21
2022-08-30T21:54:09.740Z,22.18
2022-08-30T21:56:39.967Z,21.93
2022-08-30T21:59:09.517Z,21.91
2022-08-30T22:01:38.376Z,21.80
2022-08-30T22:04:10.041Z,21.71
2022-08-30T22:06:45.111Z,21.66
2022-08-30T22:09:15.243Z,21.60
2022-08-30T22:11:44.918Z,21.59
2022-08-30T22:14:12.947Z,21.49
2022-08-30T22:16:43.653Z,21.44
2022-08-30T22:19:12.102Z,21.34
2022-08-30T22:21:44.731Z,21.22
2022-08-30T22:24:13.353Z,21.15
2022-08-30T22:26:41.795Z,21.16
2022-08-30T22:29:10.633Z,21.12
2022-08-30T22:31:41.254Z,21.03
2022-08-30T22:34:11.009Z,21.00
2022-08-30T22:36:39.915Z,20.97
2022-08-30T22:39:10.277Z,20.92
2022-08-30T22:41:41.363Z,21.05
2022-08-30T22:44:09.918Z,21.19
2022-08-30T22:46:38.942Z,21.22
2022-08-30T22:49:09.088Z,21.25
2022-08-30T22:51:40.676Z,21.24
2022-08-30T22:54:11.398Z,21.28
2022-08-30T22:56:44.424Z,21.34
2022-08-30T22:59:12.430Z,21.37
2022-08-30T23:01:43.223Z,21.32
2022-08-30T23:04:12.044Z,21.28
2022-08-30T23:06:50.170Z,21.15
2022-08-30T23:09:22.854Z,21.17
2022-08-30T23:11:53.259Z,21.17
2022-08-30T23:14:23.600Z,21.10
2022-08-30T23:16:51.739Z,21.01
2022-08-30T23:19:19.878Z,20.95
2022-08-30T23:21:48.016Z,20.87
2022-08-30T23:24:33.632Z,20.84
2022-08-30T23:27:20.473Z,20.76
2022-08-30T23:30:08.188Z,20.70
2022-08-30T23:32:53.820Z,20.65
2022-08-30T23:35:39.122Z,20.57
2022-08-30T23:38:27.446Z,20.51
2022-08-30T23:41:12.869Z,20.47
2022-08-30T23:44:00.450Z,20.43
2022-08-30T23:46:46.216Z,20.38
2022-08-30T23:49:31.723Z,20.29
2022-08-30T23:52:19.937Z,20.28
2022-08-30T23:55:05.752Z,20.26
2022-08-30T23:57:51.106Z,20.25
